createdAt,value
2023-02-17T00:02:57.220Z,87.04
2023-02-17T00:06:05.400Z,86.44
2023-02-17T00:09:08.194Z,86.74
2023-02-17T00:12:11.640Z,86.82
2023-02-17T00:15:14.306Z,86.40
2023-02-17T00:18:17.385Z,86.12
2023-02-17T00:21:22.603Z,85.48
2023-02-17T00:24:27.885Z,85.83
2023-02-17T00:27:30.568Z,86.21
2023-02-17T00:30:34.356Z,86.80
2023-02-17T00:33:37.930Z,87.22
2023-02-17T00:36:40.858Z,87.21
2023-02-17T00:39:44.955Z,87.94
2023-02-17T00:42:49.010Z,87.91
2023-02-17T00:45:55.274Z,88.34
2023-02-17T00:48:58.550Z,88.46
2023-02-17T00:52:04.962Z,88.05
2023-02-17T00:55:09.006Z,87.89
2023-02-17T00:58:12.195Z,87.15
2023-02-17T01:01:15.262Z,87.21
2023-02-17T01:04:18.789Z,88.35
2023-02-17T01:07:22.224Z,87.68
2023-02-17T01:10:24.931Z,87.28
2023-02-17T01:13:27.820Z,88.11
2023-02-17T01:16:35.278Z,88.31
2023-02-17T01:19:38.173Z,87.60
2023-02-17T01:22:40.881Z,87.28
2023-02-17T01:25:46.284Z,87.68
2023-02-17T01:28:49.293Z,87.95
2023-02-17T01:31:52.325Z,87.06
2023-02-17T01:34:55.037Z,87.09
2023-02-17T01:37:57.950Z,87.28
2023-02-17T01:41:00.667Z,87.42
2023-02-17T01:44:09.504Z,87.00
2023-02-17T01:47:13.160Z,87.20
2023-02-17T01:50:18.960Z,86.99
2023-02-17T01:53:33.512Z,87.21
2023-02-17T01:56:41.157Z,88.25
2023-02-17T01:59:45.202Z,88.62
2023-02-17T02:02:50.769Z,88.78
2023-02-17T02:05:55.915Z,90.39
2023-02-17T02:09:04.409Z,91.43
2023-02-17T02:12:25.160Z,92.15
2023-02-17T02:15:35.321Z,96.36
2023-02-17T02:18:54.002Z,97.44
2023-02-17T02:22:31.408Z,95.44
2023-02-17T02:26:14.970Z,93.03
2023-02-17T02:29:56.662Z,92.09
2023-02-17T02:33:05.444Z,92.37
2023-02-17T02:36:21.750Z,92.08
2023-02-17T02:39:29.861Z,92.53
2023-02-17T02:42:34.033Z,92.88
2023-02-17T02:45:36.891Z,92.36
2023-02-17T02:48:40.696Z,92.92
2023-02-17T02:51:55.268Z,93.81
2023-02-17T02:55:18.128Z,93.82
2023-02-17T02:58:46.910Z,92.19
2023-02-17T03:02:05.880Z,91.30
2023-02-17T03:05:27.125Z,91.10
2023-02-17T03:08:46.549Z,92.84
2023-02-17T03:11:50.419Z,91.66
2023-02-17T03:15:00.107Z,91.67
2023-02-17T03:18:03.821Z,91.91
2023-02-17T03:21:14.438Z,91.37
2023-02-17T03:24:18.234Z,93.76
2023-02-17T03:27:21.150Z,94.71
2023-02-17T03:30:24.523Z,94.20
2023-02-17T03:33:27.662Z,94.39
2023-02-17T03:36:30.330Z,93.74
2023-02-17T03:39:33.302Z,92.89
2023-02-17T03:42:36.405Z,92.38
2023-02-17T03:45:39.365Z,91.74
2023-02-17T03:48:42.843Z,92.20
2023-02-17T03:51:45.811Z,91.38
2023-02-17T03:54:48.573Z,91.30
2023-02-17T03:57:51.541Z,92.15
2023-02-17T04:00:54.568Z,91.88
2023-02-17T04:03:57.672Z,92.25
2023-02-17T04:07:00.285Z,92.72
2023-02-17T04:10:05.834Z,92.46
2023-02-17T04:13:09.654Z,91.60
2023-02-17T04:16:12.691Z,92.37
2023-02-17T04:19:15.335Z,91.98
2023-02-17T04:22:18.278Z,92.19
2023-02-17T04:25:20.933Z,91.86
2023-02-17T04:28:24.466Z,91.56
2023-02-17T04:31:28.321Z,91.48
2023-02-17T04:34:31.450Z,90.80
2023-02-17T04:37:34.141Z,91.20
2023-02-17T04:40:38.110Z,90.45
2023-02-17T04:43:40.823Z,90.37
2023-02-17T04:46:43.743Z,90.79
2023-02-17T04:49:46.331Z,90.22
2023-02-17T04:52:49.395Z,90.08
2023-02-17T04:55:53.117Z,90.33
2023-02-17T04:58:55.983Z,90.50
2023-02-17T05:01:58.605Z,90.12
2023-02-17T05:05:01.700Z,90.45
2023-02-17T05:08:04.829Z,91.02
2023-02-17T05:11:08.103Z,90.96
2023-02-17T05:14:10.817Z,90.63
2023-02-17T05:17:13.821Z,90.59
2023-02-17T05:20:16.536Z,90.24
2023-02-17T05:23:19.648Z,90.52
2023-02-17T05:26:23.715Z,90.81
2023-02-17T05:29:26.673Z,91.46
2023-02-17T05:32:29.328Z,91.34
2023-02-17T05:35:35.100Z,91.65
2023-02-17T05:38:38.357Z,91.28
2023-02-17T05:41:41.709Z,90.27
2023-02-17T05:44:44.351Z,90.34
2023-02-17T05:47:47.311Z,90.77
2023-02-17T05:50:49.844Z,90.72
2023-02-17T05:53:52.719Z,90.86
2023-02-17T05:56:55.406Z,91.54
2023-02-17T05:59:58.584Z,91.46
2023-02-17T06:03:01.638Z,90.16
2023-02-17T06:06:05.886Z,89.82
2023-02-17T06:09:08.837Z,89.78
2023-02-17T06:12:12.645Z,89.43
2023-02-17T06:15:15.377Z,88.87
2023-02-17T06:18:18.379Z,89.25
2023-02-17T06:21:21.097Z,89.55
2023-02-17T06:24:25.130Z,89.50
2023-02-17T06:27:27.822Z,89.36
2023-02-17T06:30:31.097Z,89.28
2023-02-17T06:33:33.755Z,88.63
2023-02-17T06:36:36.693Z,88.71
2023-02-17T06:39:39.337Z,89.64
2023-02-17T06:43:01.663Z,89.63
2023-02-17T06:46:06.994Z,89.99
2023-02-17T06:49:12.105Z,89.11
2023-02-17T06:52:15.123Z,88.96
2023-02-17T06:55:18.162Z,89.02
2023-02-17T06:58:21.120Z,88.48
2023-02-17T07:01:26.469Z,88.78
2023-02-17T07:04:29.807Z,88.86
2023-02-17T07:07:32.597Z,89.62
2023-02-17T07:10:37.683Z,89.25
2023-02-17T07:13:41.294Z,89.01
2023-02-17T07:16:44.450Z,88.82
2023-02-17T07:19:47.240Z,88.32
2023-02-17T07:22:50.202Z,87.91
2023-02-17T07:25:53.112Z,88.52
2023-02-17T07:28:56.039Z,89.52
2023-02-17T07:31:58.823Z,89.83
2023-02-17T07:35:02.122Z,87.53
2023-02-17T07:38:04.694Z,85.92
2023-02-17T07:41:13.700Z,85.16
2023-02-17T07:44:16.341Z,85.06
2023-02-17T07:47:20.193Z,85.19
2023-02-17T07:50:22.956Z,85.20
2023-02-17T07:53:25.977Z,84.34
2023-02-17T07:56:30.191Z,83.00
2023-02-17T07:59:33.489Z,81.52
2023-02-17T08:02:36.509Z,79.81
2023-02-17T08:05:41.654Z,79.56
2023-02-17T08:09:03.381Z,79.22
2023-02-17T08:12:27.677Z,77.19
2023-02-17T08:15:34.287Z,76.53
2023-02-17T08:18:38.461Z,76.41
2023-02-17T08:21:41.123Z,75.93
2023-02-17T08:24:44.674Z,75.21
2023-02-17T08:27:47.288Z,76.92
2023-02-17T08:30:50.895Z,76.05
2023-02-17T08:33:55.100Z,76.41
2023-02-17T08:36:58.045Z,78.57
2023-02-17T08:40:00.788Z,79.66
2023-02-17T08:43:08.560Z,78.80
2023-02-17T08:46:12.689Z,78.81
2023-02-17T08:49:22.187Z,76.54
2023-02-17T08:52:25.015Z,76.57
2023-02-17T08:55:30.420Z,76.69
2023-02-17T08:58:36.537Z,75.49
2023-02-17T09:01:41.153Z,73.90
2023-02-17T09:04:44.591Z,70.52
2023-02-17T09:07:47.585Z,69.61
2023-02-17T09:10:51.507Z,68.31
2023-02-17T09:13:54.732Z,69.86
2023-02-17T09:16:58.089Z,70.53
2023-02-17T09:20:01.114Z,70.08
2023-02-17T09:23:04.250Z,69.92
2023-02-17T09:26:10.280Z,69.36
2023-02-17T09:29:13.125Z,64.92
2023-02-17T09:32:16.203Z,64.51
2023-02-17T09:35:19.305Z,63.89
2023-02-17T09:38:23.403Z,63.17
2023-02-17T09:41:32.392Z,64.25
2023-02-17T09:44:43.956Z,62.26
2023-02-17T09:47:49.356Z,63.29
2023-02-17T09:51:00.585Z,63.06
2023-02-17T09:54:24.485Z,61.38
2023-02-17T09:57:31.704Z,62.51
2023-02-17T10:00:44.318Z,60.75
2023-02-17T10:03:55.426Z,60.74
2023-02-17T10:07:20.472Z,58.36
2023-02-17T10:10:33.021Z,60.04
2023-02-17T10:13:38.025Z,59.83
2023-02-17T10:16:49.299Z,59.56
2023-02-17T10:20:05.126Z,57.69
2023-02-17T10:23:16.433Z,58.21
2023-02-17T10:26:39.389Z,58.42
2023-02-17T10:30:01.634Z,59.77
2023-02-17T10:33:29.327Z,58.84
2023-02-17T10:36:52.109Z,60.07
2023-02-17T10:39:58.929Z,59.59
2023-02-17T10:43:07.775Z,57.58
2023-02-17T10:46:13.830Z,56.18
2023-02-17T10:49:30.702Z,56.69
2023-02-17T10:52:41.460Z,55.91
2023-02-17T10:56:04.967Z,53.27
2023-02-17T10:59:19.382Z,50.49
2023-02-17T11:02:35.417Z,50.74
2023-02-17T11:05:38.817Z,51.05
2023-02-17T11:09:03.875Z,51.88
2023-02-17T11:12:14.860Z,51.54
2023-02-17T11:15:20.395Z,51.13
2023-02-17T11:18:32.952Z,51.29
2023-02-17T11:21:43.714Z,51.74
2023-02-17T11:24:58.802Z,52.38
2023-02-17T11:28:06.319Z,49.45
2023-02-17T11:31:23.959Z,51.18
2023-02-17T11:34:36.197Z,49.86
2023-02-17T11:37:43.462Z,50.43
2023-02-17T11:41:12.937Z,50.99
2023-02-17T11:44:28.565Z,51.87
2023-02-17T11:47:50.598Z,51.61
2023-02-17T11:51:02.528Z,51.67
2023-02-17T11:54:36.148Z,50.59
2023-02-17T11:57:44.379Z,50.64
2023-02-17T12:01:04.079Z,51.27
2023-02-17T12:04:27.933Z,52.15
2023-02-17T12:07:48.489Z,52.10
2023-02-17T12:11:19.431Z,52.83
2023-02-17T12:14:39.631Z,52.65
2023-02-17T12:18:10.700Z,52.53
2023-02-17T12:21:48.574Z,52.70
2023-02-17T12:25:15.834Z,52.25
2023-02-17T12:28:58.714Z,52.83
2023-02-17T12:32:11.614Z,52.20
2023-02-17T12:35:22.490Z,53.61
2023-02-17T12:38:30.736Z,53.04
2023-02-17T12:41:45.793Z,53.02
2023-02-17T12:44:56.642Z,53.41
2023-02-17T12:48:11.753Z,52.77
2023-02-17T12:51:23.103Z,52.24
2023-02-17T12:54:38.214Z,52.71
2023-02-17T12:58:00.671Z,51.82
2023-02-17T13:01:09.489Z,52.45
2023-02-17T13:04:18.257Z,52.47
2023-02-17T13:07:30.025Z,52.00
2023-02-17T13:10:39.439Z,51.52
2023-02-17T13:13:42.418Z,51.80
2023-02-17T13:16:46.413Z,52.68
2023-02-17T13:20:09.413Z,52.47
2023-02-17T13:23:30.234Z,53.56
2023-02-17T13:26:43.134Z,52.14
2023-02-17T13:29:46.738Z,53.01
2023-02-17T13:33:04.645Z,53.02
2023-02-17T13:36:20.893Z,53.07
2023-02-17T13:39:26.726Z,52.94
2023-02-17T13:42:41.227Z,53.19
2023-02-17T13:46:02.955Z,53.12
2023-02-17T13:49:06.827Z,52.98
2023-02-17T13:52:19.212Z,52.92
2023-02-17T13:55:24.331Z,52.43
2023-02-17T13:58:31.020Z,52.93
2023-02-17T14:01:37.370Z,52.29
2023-02-17T14:04:40.380Z,52.29
2023-02-17T14:07:43.102Z,52.60
2023-02-17T14:10:46.554Z,52.50
2023-02-17T14:13:52.362Z,52.77
2023-02-17T14:17:04.222Z,52.47
2023-02-17T14:20:07.666Z,52.88
2023-02-17T14:23:14.243Z,53.35
2023-02-17T14:26:41.607Z,54.13
2023-02-17T14:29:47.395Z,52.93
2023-02-17T14:32:50.102Z,53.14
2023-02-17T14:35:55.696Z,51.54
2023-02-17T14:39:00.106Z,51.06
2023-02-17T14:42:03.534Z,51.16
2023-02-17T14:45:07.625Z,50.54
2023-02-17T14:48:10.664Z,51.44
2023-02-17T14:51:14.464Z,52.25
2023-02-17T14:54:18.845Z,53.56
2023-02-17T14:57:27.068Z,54.26
2023-02-17T15:00:30.463Z,54.49
2023-02-17T15:03:33.409Z,55.02
2023-02-17T15:06:45.476Z,54.99
2023-02-17T15:09:49.335Z,53.33
2023-02-17T15:12:52.899Z,52.81
2023-02-17T15:15:55.738Z,52.18
2023-02-17T15:18:58.798Z,52.94
2023-02-17T15:22:03.650Z,53.34
2023-02-17T15:25:14.204Z,54.09
2023-02-17T15:28:19.145Z,54.77
2023-02-17T15:31:22.418Z,55.82
2023-02-17T15:34:35.065Z,57.04
2023-02-17T15:37:38.179Z,58.34
2023-02-17T15:40:42.360Z,59.83
2023-02-17T15:43:47.323Z,60.60
2023-02-17T15:46:51.579Z,61.73
2023-02-17T15:49:54.529Z,62.56
2023-02-17T15:52:57.743Z,62.55
2023-02-17T15:56:01.439Z,63.32
2023-02-17T15:59:09.627Z,63.72
2023-02-17T16:02:21.063Z,63.34
2023-02-17T16:05:27.306Z,63.29
2023-02-17T16:08:30.153Z,63.98
2023-02-17T16:11:34.054Z,64.62
2023-02-17T16:14:38.196Z,65.15
2023-02-17T16:17:41.614Z,65.28
2023-02-17T16:20:44.448Z,65.83
2023-02-17T16:23:48.606Z,66.23
2023-02-17T16:26:51.554Z,66.17
2023-02-17T16:29:54.649Z,66.08
2023-02-17T16:32:58.530Z,66.82
2023-02-17T16:36:01.429Z,66.72
2023-02-17T16:39:12.814Z,67.19
2023-02-17T16:42:16.046Z,67.58
2023-02-17T16:45:25.075Z,67.99
2023-02-17T16:48:31.629Z,68.59
2023-02-17T16:51:34.364Z,68.03
2023-02-17T16:54:37.442Z,69.95
2023-02-17T16:57:42.884Z,69.50
2023-02-17T17:00:51.633Z,69.62
2023-02-17T17:03:54.371Z,70.23
2023-02-17T17:06:57.339Z,70.49
2023-02-17T17:10:15.306Z,70.59
2023-02-17T17:13:19.705Z,71.06
2023-02-17T17:16:31.070Z,70.94
2023-02-17T17:19:34.195Z,71.72
2023-02-17T17:22:36.869Z,71.45
2023-02-17T17:25:42.312Z,71.70
2023-02-17T17:28:48.222Z,71.97
2023-02-17T17:31:51.579Z,71.30
2023-02-17T17:34:55.210Z,72.26
2023-02-17T17:37:58.993Z,72.32
2023-02-17T17:41:01.604Z,72.42
2023-02-17T17:44:04.765Z,72.25
2023-02-17T17:47:13.873Z,72.31
2023-02-17T17:50:24.936Z,72.70
2023-02-17T17:53:27.861Z,72.71
2023-02-17T17:56:38.937Z,73.24
2023-02-17T17:59:42.095Z,73.54
2023-02-17T18:02:45.142Z,73.27
2023-02-17T18:05:48.669Z,73.22
2023-02-17T18:08:53.568Z,73.64
2023-02-17T18:11:59.128Z,73.91
2023-02-17T18:15:04.380Z,72.86
2023-02-17T18:18:07.970Z,73.81
2023-02-17T18:21:11.105Z,73.84
2023-02-17T18:24:15.035Z,73.35
2023-02-17T18:27:17.970Z,74.33
2023-02-17T18:30:21.573Z,73.90
2023-02-17T18:33:24.620Z,74.34
2023-02-17T18:36:27.975Z,74.43
2023-02-17T18:39:31.043Z,74.71
2023-02-17T18:42:34.912Z,74.88
2023-02-17T18:45:37.837Z,75.19
2023-02-17T18:48:41.282Z,74.17
2023-02-17T18:51:44.223Z,75.51
2023-02-17T18:54:47.230Z,75.47
2023-02-17T18:57:50.062Z,75.88
2023-02-17T19:00:53.398Z,76.91
2023-02-17T19:03:57.005Z,77.34
2023-02-17T19:07:03.506Z,76.98
2023-02-17T19:10:07.026Z,76.28
2023-02-17T19:13:10.496Z,77.31
2023-02-17T19:16:19.872Z,77.65
2023-02-17T19:19:23.302Z,76.76
2023-02-17T19:22:26.468Z,78.13
2023-02-17T19:25:30.588Z,78.05
2023-02-17T19:28:35.781Z,79.09
2023-02-17T19:31:39.063Z,80.56
2023-02-17T19:34:43.559Z,79.53
2023-02-17T19:37:47.194Z,80.38
2023-02-17T19:40:50.610Z,80.82
2023-02-17T19:43:53.534Z,81.23
2023-02-17T19:46:56.234Z,80.79
2023-02-17T19:49:59.428Z,80.75
2023-02-17T19:53:02.369Z,81.17
2023-02-17T19:56:12.111Z,80.96
2023-02-17T19:59:15.943Z,80.83
2023-02-17T20:02:18.953Z,81.46
2023-02-17T20:05:22.187Z,81.42
2023-02-17T20:08:25.022Z,81.37
2023-02-17T20:11:29.008Z,81.74
2023-02-17T20:14:31.855Z,81.77
2023-02-17T20:17:34.997Z,83.10
2023-02-17T20:20:37.917Z,82.76
2023-02-17T20:23:40.993Z,81.35
2023-02-17T20:26:46.782Z,81.94
2023-02-17T20:29:50.350Z,81.58
2023-02-17T20:32:53.253Z,80.49
2023-02-17T20:35:56.291Z,80.42
2023-02-17T20:38:59.161Z,81.22
2023-02-17T20:42:02.854Z,80.84
2023-02-17T20:45:05.942Z,80.47
2023-02-17T20:48:10.145Z,80.92
2023-02-17T20:51:13.733Z,80.67
2023-02-17T20:54:16.903Z,80.73
2023-02-17T20:57:19.837Z,80.49
2023-02-17T21:00:25.074Z,80.68
2023-02-17T21:03:28.444Z,80.59
2023-02-17T21:06:34.652Z,79.50
2023-02-17T21:09:37.352Z,79.09
2023-02-17T21:12:40.523Z,79.17
2023-02-17T21:15:43.391Z,79.05
2023-02-17T21:18:47.263Z,79.36
2023-02-17T21:21:50.645Z,78.57
2023-02-17T21:24:53.712Z,78.12
2023-02-17T21:27:56.463Z,78.03
2023-02-17T21:30:59.665Z,77.73
2023-02-17T21:34:02.534Z,77.46
2023-02-17T21:37:08.198Z,77.40
2023-02-17T21:40:11.767Z,77.59
2023-02-17T21:43:36.356Z,77.89
2023-02-17T21:46:41.878Z,78.18
2023-02-17T21:49:44.959Z,77.45
2023-02-17T21:52:47.856Z,77.08
2023-02-17T21:55:50.885Z,75.96
2023-02-17T21:58:55.536Z,75.69
2023-02-17T22:01:58.726Z,75.32
2023-02-17T22:05:01.600Z,74.59
2023-02-17T22:08:04.519Z,74.56
2023-02-17T22:11:16.869Z,75.19
2023-02-17T22:14:21.303Z,74.81
2023-02-17T22:17:24.238Z,74.21
2023-02-17T22:20:28.041Z,73.78
2023-02-17T22:23:30.930Z,74.10
2023-02-17T22:26:33.638Z,73.97
2023-02-17T22:29:36.614Z,72.99
2023-02-17T22:32:40.470Z,72.59
2023-02-17T22:35:43.687Z,72.29
2023-02-17T22:38:46.429Z,71.91
2023-02-17T22:41:49.306Z,71.61
2023-02-17T22:44:52.443Z,71.65
2023-02-17T22:47:55.385Z,70.79
2023-02-17T22:50:58.161Z,71.64
2023-02-17T22:54:02.175Z,71.74
2023-02-17T22:57:05.180Z,71.49
2023-02-17T23:00:08.826Z,70.83
2023-02-17T23:03:11.783Z,70.96
2023-02-17T23:06:22.086Z,69.99
2023-02-17T23:09:24.785Z,70.08
2023-02-17T23:12:27.996Z,69.71
2023-02-17T23:15:39.433Z,69.20
2023-02-17T23:18:42.663Z,69.69
2023-02-17T23:21:48.205Z,69.40
2023-02-17T23:24:51.240Z,68.69
2023-02-17T23:27:53.946Z,69.20
2023-02-17T23:30:57.346Z,68.03
2023-02-17T23:34:00.145Z,69.18
2023-02-17T23:37:03.203Z,69.00
2023-02-17T23:40:06.542Z,69.13
2023-02-17T23:43:10.764Z,69.79
2023-02-17T23:46:13.430Z,70.39
2023-02-17T23:49:17.741Z,70.52
2023-02-17T23:52:20.525Z,69.78
2023-02-17T23:55:23.493Z,69.85
2023-02-17T23:58:26.097Z,69.87
